Time;durP1;ratioP1;P1;durP2;ratioP2;P2;SDS_P1;SDS_P2;PMS_P1;PMS_P2;Temp;Humidity;BMP_temperature;BMP_pressure;BME280_temperature;BME280_humidity;BME280_pressure;Samples;Min_cycle;Max_cycle;Signal;HPM_P1;HPM_P2
2022/11/28 00:00:27;;;;;;;32.00;15.45;;;;;;;;;;5032554;28;20037;-70
2022/11/28 00:02:53;;;;;;;31.65;15.70;;;;;;;;;;5032238;28;20025;-71
2022/11/28 00:05:19;;;;;;;33.65;15.48;;;;;;;;;;5032451;28;20025;-72
2022/11/28 00:07:45;;;;;;;29.20;14.85;;;;;;;;;;5032676;28;20076;-70
2022/11/28 00:10:11;;;;;;;35.22;15.15;;;;;;;;;;5033080;28;20029;-72
2022/11/28 00:12:37;;;;;;;31.98;16.17;;;;;;;;;;5032331;28;20048;-73
2022/11/28 00:15:04;;;;;;;34.17;15.70;;;;;;;;;;5032687;28;20037;-71
2022/11/28 00:17:31;;;;;;;30.23;15.50;;;;;;;;;;5033141;28;20048;-72
2022/11/28 00:19:57;;;;;;;32.47;15.20;;;;;;;;;;5038044;28;20067;-71
2022/11/28 00:22:26;;;;;;;29.73;15.13;;;;;;;;;;5033855;28;20026;-73
2022/11/28 00:24:52;;;;;;;32.15;15.18;;;;;;;;;;5032423;28;20072;-72
2022/11/28 00:27:18;;;;;;;31.33;15.20;;;;;;;;;;5032509;28;20056;-72
2022/11/28 00:29:44;;;;;;;29.00;15.48;;;;;;;;;;5033169;28;20022;-71
2022/11/28 00:32:10;;;;;;;32.05;14.73;;;;;;;;;;5032981;28;20018;-72
2022/11/28 00:34:36;;;;;;;36.22;13.80;;;;;;;;;;5033442;28;20026;-70
2022/11/28 00:37:02;;;;;;;30.98;14.52;;;;;;;;;;5033270;28;20029;-70
2022/11/28 00:39:28;;;;;;;26.50;14.48;;;;;;;;;;5031462;28;20022;-71
2022/11/28 00:41:54;;;;;;;31.23;13.52;;;;;;;;;;5032173;28;20033;-72
2022/11/28 00:44:20;;;;;;;23.55;13.65;;;;;;;;;;5032360;28;20031;-70
2022/11/28 00:46:46;;;;;;;28.25;14.27;;;;;;;;;;5031984;28;20025;-73
2022/11/28 00:49:12;;;;;;;31.10;14.20;;;;;;;;;;5032275;28;20541;-71
2022/11/28 00:51:38;;;;;;;28.05;14.43;;;;;;;;;;5032308;28;20037;-72
2022/11/28 00:54:05;;;;;;;29.52;14.23;;;;;;;;;;5032488;28;20021;-71
2022/11/28 00:56:35;;;;;;;25.33;13.20;;;;;;;;;;5034533;28;20037;-72
2022/11/28 00:59:02;;;;;;;30.52;13.90;;;;;;;;;;5034447;28;20160;-72
2022/11/28 01:01:32;;;;;;;27.05;13.15;;;;;;;;;;5029278;28;20083;-71
2022/11/28 01:04:00;;;;;;;29.02;13.80;;;;;;;;;;5033015;28;20025;-73
2022/11/28 01:06:28;;;;;;;29.33;13.43;;;;;;;;;;5035972;28;20033;-74
2022/11/28 01:08:54;;;;;;;26.77;13.48;;;;;;;;;;5039772;28;20064;-71
2022/11/28 01:11:21;;;;;;;31.70;13.73;;;;;;;;;;5041661;28;20085;-70
2022/11/28 01:13:47;;;;;;;27.73;12.77;;;;;;;;;;5044340;28;20029;-75
2022/11/28 01:16:13;;;;;;;31.00;14.13;;;;;;;;;;5047267;28;20030;-71
2022/11/28 01:18:39;;;;;;;28.05;13.43;;;;;;;;;;5040002;28;20029;-71
2022/11/28 01:21:06;;;;;;;27.67;13.55;;;;;;;;;;5036234;28;20028;-70
2022/11/28 01:23:32;;;;;;;35.95;14.45;;;;;;;;;;5036216;28;20035;-72
2022/11/28 01:25:58;;;;;;;25.85;12.80;;;;;;;;;;5036192;28;20056;-71
2022/11/28 01:28:24;;;;;;;25.83;12.73;;;;;;;;;;5037805;28;20406;-70
2022/11/28 01:30:50;;;;;;;31.58;13.52;;;;;;;;;;5039877;28;20026;-69
2022/11/28 01:33:16;;;;;;;30.35;13.43;;;;;;;;;;5051103;28;20055;-72
2022/11/28 01:35:42;;;;;;;29.48;13.05;;;;;;;;;;5048369;28;20068;-73
2022/11/28 01:38:08;;;;;;;26.30;13.25;;;;;;;;;;5057161;28;20088;-79
2022/11/28 01:40:34;;;;;;;27.05;12.27;;;;;;;;;;5059201;28;20013;-79
2022/11/28 01:42:59;;;;;;;29.25;13.23;;;;;;;;;;5058640;28;20017;-76
2022/11/28 01:45:34;;;;;;;26.23;12.27;;;;;;;;;;5045917;28;20168;-74
2022/11/28 01:48:02;;;;;;;31.92;13.20;;;;;;;;;;5054778;28;20033;-77
2022/11/28 01:50:29;;;;;;;25.45;12.02;;;;;;;;;;5042059;28;20060;-72
2022/11/28 01:52:57;;;;;;;24.40;13.15;;;;;;;;;;5034616;28;20030;-70
2022/11/28 01:55:25;;;;;;;27.15;12.38;;;;;;;;;;5034251;28;20048;-72
2022/11/28 01:57:52;;;;;;;27.75;12.40;;;;;;;;;;5034614;28;20029;-73
2022/11/28 02:00:19;;;;;;;27.05;12.68;;;;;;;;;;5034320;28;20022;-70
2022/11/28 02:02:46;;;;;;;24.45;12.02;;;;;;;;;;5034276;28;20022;-72
2022/11/28 02:05:13;;;;;;;27.60;11.70;;;;;;;;;;5034513;28;20029;-70
2022/11/28 02:07:39;;;;;;;25.15;13.02;;;;;;;;;;5033815;28;20025;-71
2022/11/28 02:10:07;;;;;;;29.55;12.18;;;;;;;;;;5034396;28;20022;-71
2022/11/28 02:12:56;;;;;;;26.00;11.55;;;;;;;;;;5034327;28;20155;-70
2022/11/28 02:15:41;;;;;;;29.67;12.10;;;;;;;;;;5028307;28;20061;-72
2022/11/28 02:18:25;;;;;;;33.55;13.65;;;;;;;;;;5032593;28;20124;-72
2022/11/28 02:20:58;;;;;;;26.20;12.32;;;;;;;;;;5033468;28;20075;-72
2022/11/28 02:23:24;;;;;;;23.23;11.75;;;;;;;;;;5032448;28;20029;-72
2022/11/28 02:25:53;;;;;;;27.52;12.25;;;;;;;;;;5032629;28;20363;-75
2022/11/28 02:28:36;;;;;;;25.48;12.32;;;;;;;;;;5031261;28;20032;-71
2022/11/28 02:31:21;;;;;;;22.88;12.43;;;;;;;;;;5033389;28;20037;-71
2022/11/28 02:33:53;;;;;;;21.42;10.95;;;;;;;;;;5034018;28;20036;-73
2022/11/28 02:36:21;;;;;;;22.33;11.55;;;;;;;;;;5033097;28;20026;-74
2022/11/28 02:39:06;;;;;;;24.60;11.55;;;;;;;;;;5033573;28;20671;-72
2022/11/28 02:41:41;;;;;;;27.98;11.57;;;;;;;;;;5036400;28;20052;-72
2022/11/28 02:44:10;;;;;;;26.83;11.13;;;;;;;;;;5051241;28;20077;-70
2022/11/28 02:46:43;;;;;;;22.95;10.98;;;;;;;;;;5036712;28;20029;-71
2022/11/28 02:49:16;;;;;;;20.63;10.75;;;;;;;;;;5033096;28;20029;-74
2022/11/28 02:51:51;;;;;;;28.25;11.95;;;;;;;;;;5038014;28;20040;-72
2022/11/28 02:54:17;;;;;;;23.45;11.38;;;;;;;;;;5032633;28;20025;-74
2022/11/28 02:56:48;;;;;;;21.75;10.88;;;;;;;;;;5031888;28;20021;-72
2022/11/28 02:59:32;;;;;;;19.55;10.88;;;;;;;;;;5032572;28;20030;-71
2022/11/28 03:01:59;;;;;;;23.55;10.98;;;;;;;;;;5032356;28;20536;-72
2022/11/28 03:04:58;;;;;;;23.60;11.95;;;;;;;;;;5032418;28;20025;-74
2022/11/28 03:07:44;;;;;;;27.42;11.43;;;;;;;;;;5009118;28;20037;-73
2022/11/28 03:10:27;;;;;;;22.45;10.57;;;;;;;;;;5030836;28;20021;-72
2022/11/28 03:13:11;;;;;;;23.70;10.75;;;;;;;;;;5032467;28;20029;-71
2022/11/28 03:15:44;;;;;;;23.95;11.73;;;;;;;;;;5032022;28;20029;-73
2022/11/28 03:18:22;;;;;;;19.80;10.50;;;;;;;;;;5032509;28;20048;-74
2022/11/28 03:21:20;;;;;;;23.95;11.57;;;;;;;;;;5033074;28;20034;-76
2022/11/28 03:23:57;;;;;;;24.77;11.43;;;;;;;;;;5014648;28;20085;-74
2022/11/28 03:26:29;;;;;;;26.48;13.48;;;;;;;;;;5038325;28;20030;-77
2022/11/28 03:29:07;;;;;;;26.10;12.48;;;;;;;;;;5041605;28;20032;-75
2022/11/28 03:31:36;;;;;;;20.20;11.30;;;;;;;;;;5046460;28;20032;-77
2022/11/28 03:34:03;;;;;;;24.02;11.63;;;;;;;;;;5050915;28;20243;-75
2022/11/28 03:36:32;;;;;;;27.67;10.50;;;;;;;;;;5032222;28;20029;-75
2022/11/28 03:39:02;;;;;;;25.67;10.85;;;;;;;;;;5031996;28;20462;-77
2022/11/28 03:41:30;;;;;;;23.58;10.52;;;;;;;;;;5031400;28;20024;-76
2022/11/28 03:43:57;;;;;;;25.85;10.82;;;;;;;;;;5033367;28;20026;-75
2022/11/28 03:46:26;;;;;;;20.52;10.32;;;;;;;;;;5031159;28;20029;-74
2022/11/28 03:48:54;;;;;;;19.73;9.95;;;;;;;;;;5035547;28;20043;-76
2022/11/28 03:51:23;;;;;;;22.42;10.10;;;;;;;;;;5033835;28;20053;-76
2022/11/28 03:54:04;;;;;;;22.90;10.10;;;;;;;;;;5034858;28;20104;-75
2022/11/28 03:56:35;;;;;;;21.33;10.38;;;;;;;;;;5031630;28;20029;-74
2022/11/28 03:59:03;;;;;;;21.38;10.32;;;;;;;;;;5032636;28;20022;-74
2022/11/28 04:01:33;;;;;;;24.08;10.25;;;;;;;;;;5031690;28;20051;-74
2022/11/28 04:04:15;;;;;;;19.63;10.35;;;;;;;;;;5034786;28;20025;-74
2022/11/28 04:06:55;;;;;;;28.52;11.27;;;;;;;;;;5042395;28;20077;-72
2022/11/28 04:09:33;;;;;;;23.88;11.02;;;;;;;;;;5043118;28;20026;-73
2022/11/28 04:12:04;;;;;;;23.88;10.65;;;;;;;;;;5044059;28;20393;-75
2022/11/28 04:14:43;;;;;;;23.45;10.73;;;;;;;;;;5052715;28;20033;-73
2022/11/28 04:17:19;;;;;;;23.80;10.48;;;;;;;;;;5039262;28;20029;-75
2022/11/28 04:19:50;;;;;;;27.08;10.98;;;;;;;;;;5030873;28;20084;-75
2022/11/28 04:22:42;;;;;;;26.58;11.27;;;;;;;;;;5030888;28;20036;-75
2022/11/28 04:25:10;;;;;;;22.10;11.00;;;;;;;;;;5034650;28;20071;-72
2022/11/28 04:27:42;;;;;;;22.98;11.18;;;;;;;;;;5045095;28;20052;-73
2022/11/28 04:30:09;;;;;;;26.55;10.90;;;;;;;;;;5047372;28;20026;-74
2022/11/28 04:32:38;;;;;;;17.58;10.52;;;;;;;;;;5031014;28;20501;-76
2022/11/28 04:35:06;;;;;;;25.30;11.15;;;;;;;;;;5030083;28;20083;-73
2022/11/28 04:37:32;;;;;;;21.00;10.77;;;;;;;;;;5030101;28;20200;-73
2022/11/28 04:40:00;;;;;;;25.73;11.63;;;;;;;;;;5031045;28;20033;-75
2022/11/28 04:42:29;;;;;;;23.98;11.77;;;;;;;;;;5030890;28;20101;-74
2022/11/28 04:44:55;;;;;;;23.90;11.75;;;;;;;;;;5029687;28;20536;-77
2022/11/28 04:47:22;;;;;;;18.83;10.80;;;;;;;;;;5031469;28;20041;-75
2022/11/28 04:49:48;;;;;;;27.00;11.80;;;;;;;;;;5030416;28;20397;-73
2022/11/28 04:52:24;;;;;;;26.02;10.95;;;;;;;;;;5033947;28;20040;-73
2022/11/28 04:54:53;;;;;;;24.42;11.68;;;;;;;;;;5035235;28;20551;-73
2022/11/28 04:57:23;;;;;;;27.00;11.70;;;;;;;;;;5034949;28;20029;-74
2022/11/28 04:59:50;;;;;;;23.33;11.18;;;;;;;;;;5034070;28;20025;-76
2022/11/28 05:02:17;;;;;;;27.33;12.50;;;;;;;;;;5035425;28;20079;-76
2022/11/28 05:04:43;;;;;;;23.60;11.70;;;;;;;;;;5035512;28;20459;-74
2022/11/28 05:07:10;;;;;;;26.20;12.10;;;;;;;;;;5035076;28;20056;-76
2022/11/28 05:09:37;;;;;;;19.92;10.75;;;;;;;;;;5035786;28;20517;-76
2022/11/28 05:12:03;;;;;;;26.80;11.52;;;;;;;;;;5034411;28;20037;-75
2022/11/28 05:14:29;;;;;;;20.33;11.85;;;;;;;;;;5035541;28;20115;-75
2022/11/28 05:16:55;;;;;;;24.00;11.98;;;;;;;;;;5034965;28;20460;-74
2022/11/28 05:19:21;;;;;;;21.13;10.60;;;;;;;;;;5035450;28;20035;-75
2022/11/28 05:21:47;;;;;;;22.42;10.98;;;;;;;;;;5034968;28;20040;-74
2022/11/28 05:24:13;;;;;;;24.42;11.75;;;;;;;;;;5035094;28;20026;-76
2022/11/28 05:26:39;;;;;;;24.80;12.13;;;;;;;;;;5035081;28;20033;-75
2022/11/28 05:29:05;;;;;;;27.63;13.20;;;;;;;;;;5035990;28;20037;-75
2022/11/28 05:31:31;;;;;;;25.20;11.90;;;;;;;;;;5035369;28;20095;-74
2022/11/28 05:33:57;;;;;;;26.48;12.00;;;;;;;;;;5036725;28;20026;-73
2022/11/28 05:36:23;;;;;;;26.88;12.82;;;;;;;;;;5033788;28;20033;-71
2022/11/28 05:38:49;;;;;;;25.05;12.38;;;;;;;;;;5037412;28;20032;-71
2022/11/28 05:41:19;;;;;;;24.35;12.32;;;;;;;;;;5037928;28;20032;-71
2022/11/28 05:43:45;;;;;;;29.67;12.35;;;;;;;;;;5040119;28;20459;-74
2022/11/28 05:46:11;;;;;;;27.27;12.20;;;;;;;;;;5041346;28;20495;-73
2022/11/28 05:48:37;;;;;;;23.10;12.27;;;;;;;;;;5045703;28;20029;-72
2022/11/28 05:51:04;;;;;;;23.88;11.80;;;;;;;;;;5046973;28;20039;-73
2022/11/28 05:53:29;;;;;;;27.02;12.40;;;;;;;;;;5036060;28;20021;-73
2022/11/28 05:55:55;;;;;;;25.50;11.85;;;;;;;;;;5034133;28;20105;-72
2022/11/28 05:58:21;;;;;;;23.85;12.02;;;;;;;;;;5034808;28;20475;-73
2022/11/28 06:00:47;;;;;;;25.42;12.07;;;;;;;;;;5035866;28;20087;-78
2022/11/28 06:03:13;;;;;;;25.23;12.55;;;;;;;;;;5034041;28;20112;-73
2022/11/28 06:05:40;;;;;;;26.10;13.23;;;;;;;;;;5036073;28;20471;-74
2022/11/28 06:08:06;;;;;;;27.35;13.30;;;;;;;;;;5035463;28;20029;-74
2022/11/28 06:10:32;;;;;;;28.85;12.45;;;;;;;;;;5037580;28;20037;-73
2022/11/28 06:12:58;;;;;;;25.95;12.63;;;;;;;;;;5036796;28;20119;-73
2022/11/28 06:15:24;;;;;;;24.50;12.68;;;;;;;;;;5040284;28;20037;-73
2022/11/28 06:17:50;;;;;;;26.90;11.93;;;;;;;;;;5044918;28;20037;-71
2022/11/28 06:20:16;;;;;;;20.63;11.82;;;;;;;;;;5050107;28;20029;-73
2022/11/28 06:22:42;;;;;;;22.67;11.93;;;;;;;;;;5051271;28;20029;-73
2022/11/28 06:25:08;;;;;;;23.08;12.32;;;;;;;;;;5052561;28;20033;-73
2022/11/28 06:27:34;;;;;;;24.90;12.38;;;;;;;;;;5047176;28;20053;-74
2022/11/28 06:30:00;;;;;;;26.63;12.68;;;;;;;;;;5035816;28;20037;-74
2022/11/28 06:32:26;;;;;;;26.95;12.02;;;;;;;;;;5035112;28;20036;-73
2022/11/28 06:34:52;;;;;;;22.20;11.93;;;;;;;;;;5036067;28;20033;-74
2022/11/28 06:37:18;;;;;;;23.67;12.80;;;;;;;;;;5034094;28;20045;-73
2022/11/28 06:39:44;;;;;;;25.85;12.35;;;;;;;;;;5034733;28;20025;-74
2022/11/28 06:42:10;;;;;;;31.77;13.60;;;;;;;;;;5034497;28;20025;-75
2022/11/28 06:44:36;;;;;;;25.63;12.93;;;;;;;;;;5037018;28;20100;-74
2022/11/28 06:47:02;;;;;;;26.42;13.05;;;;;;;;;;5055488;28;20072;-73
2022/11/28 06:49:28;;;;;;;30.77;13.48;;;;;;;;;;5053997;28;20030;-73
2022/11/28 06:51:54;;;;;;;25.42;13.02;;;;;;;;;;5043064;28;20025;-74
2022/11/28 06:54:20;;;;;;;23.45;12.20;;;;;;;;;;5035594;28;20471;-74
2022/11/28 06:56:46;;;;;;;27.65;13.13;;;;;;;;;;5033647;28;20025;-74
2022/11/28 06:59:12;;;;;;;28.83;13.00;;;;;;;;;;5034576;28;20033;-74
2022/11/28 07:01:38;;;;;;;24.23;12.45;;;;;;;;;;5039243;28;20044;-73
2022/11/28 07:04:04;;;;;;;28.80;13.15;;;;;;;;;;5034570;28;20475;-75
2022/11/28 07:06:30;;;;;;;24.10;12.57;;;;;;;;;;5033996;28;20084;-73
2022/11/28 07:08:57;;;;;;;23.73;13.43;;;;;;;;;;5034415;28;20520;-75
2022/11/28 07:11:24;;;;;;;23.60;13.18;;;;;;;;;;5034833;28;20034;-72
2022/11/28 07:13:51;;;;;;;25.90;12.90;;;;;;;;;;5034023;28;20394;-74
2022/11/28 07:16:18;;;;;;;27.35;14.02;;;;;;;;;;5034401;28;20111;-74
2022/11/28 07:18:44;;;;;;;26.13;13.43;;;;;;;;;;5036232;28;20367;-78
2022/11/28 07:21:11;;;;;;;26.67;13.43;;;;;;;;;;5040857;28;20037;-74
2022/11/28 07:23:37;;;;;;;25.42;12.95;;;;;;;;;;5037936;28;20036;-75
2022/11/28 07:26:04;;;;;;;27.20;13.63;;;;;;;;;;5033613;28;20482;-75
2022/11/28 07:28:31;;;;;;;33.58;14.65;;;;;;;;;;5035211;28;20025;-74
2022/11/28 07:30:59;;;;;;;28.63;13.95;;;;;;;;;;5036794;28;20028;-73
2022/11/28 07:33:25;;;;;;;31.85;13.93;;;;;;;;;;5044379;28;20109;-73
2022/11/28 07:35:51;;;;;;;28.05;13.52;;;;;;;;;;5040730;28;20061;-72
2022/11/28 07:38:17;;;;;;;32.50;14.57;;;;;;;;;;5047033;28;20033;-73
2022/11/28 07:40:43;;;;;;;27.23;14.43;;;;;;;;;;5041406;28;20113;-73
2022/11/28 07:43:09;;;;;;;31.17;14.50;;;;;;;;;;5041033;28;20032;-72
2022/11/28 07:45:38;;;;;;;32.03;14.13;;;;;;;;;;5044246;28;20028;-72
2022/11/28 07:48:04;;;;;;;27.40;14.10;;;;;;;;;;5044653;28;20101;-74
2022/11/28 07:50:30;;;;;;;26.10;14.75;;;;;;;;;;5036907;28;20053;-75
2022/11/28 07:52:56;;;;;;;31.92;14.98;;;;;;;;;;5037690;28;20051;-75
2022/11/28 07:55:22;;;;;;;30.08;14.50;;;;;;;;;;5033470;28;20039;-72
2022/11/28 07:57:48;;;;;;;32.70;15.15;;;;;;;;;;5050331;28;20064;-69
2022/11/28 08:00:14;;;;;;;32.00;15.80;;;;;;;;;;5045993;28;20041;-74
2022/11/28 08:02:40;;;;;;;27.98;14.88;;;;;;;;;;5035586;28;20029;-74
2022/11/28 08:05:06;;;;;;;29.10;14.93;;;;;;;;;;5035378;28;20026;-74
2022/11/28 08:07:32;;;;;;;32.50;15.38;;;;;;;;;;5034761;28;20115;-76
2022/11/28 08:09:58;;;;;;;36.72;16.83;;;;;;;;;;5032548;28;20025;-76
2022/11/28 08:12:24;;;;;;;33.13;15.48;;;;;;;;;;5033429;28;20021;-76
2022/11/28 08:14:50;;;;;;;34.22;15.95;;;;;;;;;;5032726;28;20032;-76
2022/11/28 08:17:16;;;;;;;32.80;16.58;;;;;;;;;;5032481;28;20030;-75
2022/11/28 08:19:42;;;;;;;33.30;15.20;;;;;;;;;;5031135;28;20064;-74
2022/11/28 08:22:08;;;;;;;36.88;17.23;;;;;;;;;;5033151;28;20034;-75
2022/11/28 08:24:34;;;;;;;32.92;15.90;;;;;;;;;;5030783;28;20026;-75
2022/11/28 08:27:00;;;;;;;33.03;15.80;;;;;;;;;;5034226;28;20482;-74
2022/11/28 08:29:26;;;;;;;34.03;15.70;;;;;;;;;;5036344;28;20021;-73
2022/11/28 08:31:52;;;;;;;29.10;15.75;;;;;;;;;;5036777;28;20025;-74
2022/11/28 08:34:18;;;;;;;37.35;16.73;;;;;;;;;;5040422;28;20009;-72
2022/11/28 08:36:46;;;;;;;34.33;16.40;;;;;;;;;;5054858;28;20026;-76
2022/11/28 08:39:12;;;;;;;39.33;17.60;;;;;;;;;;5042984;28;20021;-76
2022/11/28 08:41:38;;;;;;;31.75;16.75;;;;;;;;;;5037628;28;20021;-74
2022/11/28 08:44:04;;;;;;;37.03;16.90;;;;;;;;;;5038374;28;20100;-77
2022/11/28 08:46:30;;;;;;;32.03;16.00;;;;;;;;;;5042580;28;20395;-75
2022/11/28 08:48:56;;;;;;;37.83;16.27;;;;;;;;;;5038383;28;20033;-71
2022/11/28 08:51:23;;;;;;;35.70;17.27;;;;;;;;;;5038435;28;20021;-73
2022/11/28 08:53:49;;;;;;;40.17;16.63;;;;;;;;;;5047914;28;20043;-75
2022/11/28 08:56:15;;;;;;;42.55;16.42;;;;;;;;;;5043424;28;20025;-76
2022/11/28 08:58:41;;;;;;;48.58;17.15;;;;;;;;;;5037234;28;20386;-74
2022/11/28 09:01:20;;;;;;;35.28;16.65;;;;;;;;;;5037196;28;20122;-74
2022/11/28 09:03:47;;;;;;;34.15;17.15;;;;;;;;;;5036293;28;20037;-75
2022/11/28 09:06:13;;;;;;;35.28;17.75;;;;;;;;;;5036303;28;20056;-74
2022/11/28 09:08:39;;;;;;;36.67;18.23;;;;;;;;;;5037544;28;20099;-74
2022/11/28 09:11:06;;;;;;;31.55;17.02;;;;;;;;;;5037952;28;20037;-75
2022/11/28 09:13:32;;;;;;;34.25;16.38;;;;;;;;;;5038064;28;20057;-74
2022/11/28 09:15:58;;;;;;;35.88;17.65;;;;;;;;;;5036565;28;20418;-73
2022/11/28 09:18:25;;;;;;;33.35;16.73;;;;;;;;;;5037920;28;20439;-74
2022/11/28 09:20:56;;;;;;;36.22;17.05;;;;;;;;;;5046969;28;20457;-74
2022/11/28 09:23:22;;;;;;;34.58;17.35;;;;;;;;;;5049502;28;20591;-73
2022/11/28 09:25:48;;;;;;;32.85;17.10;;;;;;;;;;5041394;28;20014;-75
2022/11/28 09:28:14;;;;;;;36.90;18.23;;;;;;;;;;5037189;28;20041;-75
2022/11/28 09:30:40;;;;;;;35.38;16.63;;;;;;;;;;5035923;28;20029;-76
2022/11/28 09:33:06;;;;;;;39.28;17.05;;;;;;;;;;5035399;28;20026;-74
2022/11/28 09:35:32;;;;;;;38.10;17.45;;;;;;;;;;5038668;28;20057;-75
2022/11/28 09:37:58;;;;;;;34.90;16.35;;;;;;;;;;5045498;28;20044;-72
2022/11/28 09:40:36;;;;;;;37.55;17.77;;;;;;;;;;5059102;28;20029;-73
2022/11/28 09:43:02;;;;;;;39.33;18.15;;;;;;;;;;5058885;28;20022;-71
2022/11/28 09:45:30;;;;;;;33.13;17.15;;;;;;;;;;5058991;28;20044;-71
2022/11/28 09:48:00;;;;;;;42.08;17.50;;;;;;;;;;5059110;28;20024;-72
2022/11/28 09:50:32;;;;;;;36.53;18.35;;;;;;;;;;5058538;28;20021;-73
2022/11/28 09:52:58;;;;;;;43.17;18.13;;;;;;;;;;5058740;28;20014;-72
2022/11/28 09:55:24;;;;;;;41.30;18.08;;;;;;;;;;5057812;28;20006;-71
2022/11/28 09:57:51;;;;;;;34.33;17.90;;;;;;;;;;5058741;28;20204;-72
2022/11/28 10:00:22;;;;;;;38.53;17.40;;;;;;;;;;5058339;28;20041;-71
2022/11/28 10:03:14;;;;;;;38.58;18.17;;;;;;;;;;5058576;28;20025;-73
2022/11/28 10:05:50;;;;;;;40.13;18.67;;;;;;;;;;5042022;28;20017;-74
2022/11/28 10:08:16;;;;;;;38.22;17.80;;;;;;;;;;5057322;28;20060;-73
2022/11/28 10:11:02;;;;;;;36.53;17.50;;;;;;;;;;5059094;28;20029;-73
2022/11/28 10:13:45;;;;;;;48.13;18.48;;;;;;;;;;5058861;28;20035;-73
2022/11/28 10:16:46;;;;;;;40.10;17.67;;;;;;;;;;5057834;28;20014;-74
2022/11/28 10:19:14;;;;;;;36.20;17.65;;;;;;;;;;5016788;28;20057;-73
2022/11/28 10:21:54;;;;;;;36.45;16.90;;;;;;;;;;5050630;28;20052;-72
2022/11/28 10:24:24;;;;;;;33.17;17.33;;;;;;;;;;5040067;28;20029;-73
2022/11/28 10:26:58;;;;;;;34.65;16.35;;;;;;;;;;5034049;28;20108;-73
2022/11/28 10:29:38;;;;;;;31.15;16.40;;;;;;;;;;5039490;28;20033;-73
2022/11/28 10:32:05;;;;;;;39.55;18.05;;;;;;;;;;5033064;28;20491;-73
2022/11/28 10:34:51;;;;;;;36.63;16.75;;;;;;;;;;5035631;28;20037;-74
2022/11/28 10:37:17;;;;;;;37.60;17.77;;;;;;;;;;5034432;28;20029;-73
2022/11/28 10:39:44;;;;;;;34.83;17.83;;;;;;;;;;5034787;28;20047;-73
2022/11/28 10:42:29;;;;;;;34.22;17.70;;;;;;;;;;5034328;28;20394;-74
2022/11/28 10:44:58;;;;;;;35.38;16.42;;;;;;;;;;5033151;28;20537;-73
2022/11/28 10:47:38;;;;;;;36.08;17.63;;;;;;;;;;5036354;28;20068;-74
2022/11/28 10:50:10;;;;;;;38.08;16.48;;;;;;;;;;5033628;28;20113;-74
2022/11/28 10:52:39;;;;;;;45.83;17.98;;;;;;;;;;5033829;28;20364;-73
2022/11/28 10:55:11;;;;;;;34.85;16.38;;;;;;;;;;5034252;28;20037;-74
2022/11/28 10:57:40;;;;;;;41.42;17.83;;;;;;;;;;5034488;28;20022;-73
2022/11/28 11:00:11;;;;;;;32.17;16.33;;;;;;;;;;5036441;28;20030;-73
2022/11/28 11:02:40;;;;;;;34.42;16.83;;;;;;;;;;5036692;28;20026;-74
2022/11/28 11:05:11;;;;;;;36.97;18.10;;;;;;;;;;5037076;28;20028;-73
2022/11/28 11:07:37;;;;;;;34.50;17.50;;;;;;;;;;5033622;28;20490;-75
2022/11/28 11:10:14;;;;;;;38.90;18.00;;;;;;;;;;5035421;28;20033;-74
2022/11/28 11:12:41;;;;;;;37.97;17.27;;;;;;;;;;5032943;28;20505;-73
2022/11/28 11:15:19;;;;;;;39.83;17.40;;;;;;;;;;5032779;28;20080;-74
2022/11/28 11:17:45;;;;;;;37.85;17.40;;;;;;;;;;5033593;28;20084;-73
2022/11/28 11:20:20;;;;;;;33.00;16.17;;;;;;;;;;5035556;28;20025;-74
2022/11/28 11:23:00;;;;;;;37.10;16.65;;;;;;;;;;5034230;28;20025;-73
2022/11/28 11:25:30;;;;;;;34.42;16.30;;;;;;;;;;5033663;28;20425;-75
2022/11/28 11:27:59;;;;;;;40.58;15.80;;;;;;;;;;5034116;28;20028;-72
2022/11/28 11:30:28;;;;;;;38.10;16.98;;;;;;;;;;5033494;28;20510;-75
2022/11/28 11:32:56;;;;;;;35.05;16.42;;;;;;;;;;5036048;28;20021;-74
2022/11/28 11:35:23;;;;;;;44.65;17.55;;;;;;;;;;5033631;28;20025;-74
2022/11/28 11:37:49;;;;;;;36.72;15.48;;;;;;;;;;5033721;28;20029;-73
2022/11/28 11:40:24;;;;;;;30.27;16.10;;;;;;;;;;5033968;28;20022;-72
2022/11/28 11:42:57;;;;;;;29.42;15.73;;;;;;;;;;5033903;28;20033;-74
2022/11/28 11:45:26;;;;;;;36.85;16.83;;;;;;;;;;5032348;28;20478;-73
2022/11/28 11:47:52;;;;;;;36.22;16.50;;;;;;;;;;5033445;28;20398;-75
2022/11/28 11:50:20;;;;;;;38.70;15.70;;;;;;;;;;5036514;28;20110;-73
2022/11/28 11:53:04;;;;;;;38.88;17.17;;;;;;;;;;5037362;28;20030;-74
2022/11/28 11:55:31;;;;;;;39.90;17.35;;;;;;;;;;5050942;28;20025;-73
2022/11/28 11:57:59;;;;;;;39.92;16.88;;;;;;;;;;5043398;28;20021;-73
2022/11/28 12:00:38;;;;;;;35.78;17.25;;;;;;;;;;5048298;28;20096;-72
2022/11/28 12:03:11;;;;;;;32.15;16.88;;;;;;;;;;5051982;28;20322;-73
2022/11/28 12:05:47;;;;;;;31.58;16.50;;;;;;;;;;5034300;28;20029;-74
2022/11/28 12:08:13;;;;;;;36.95;17.42;;;;;;;;;;5035752;28;20101;-74
2022/11/28 12:10:42;;;;;;;41.42;18.15;;;;;;;;;;5035233;28;20068;-73
2022/11/28 12:13:16;;;;;;;37.20;17.88;;;;;;;;;;5033843;28;20479;-72
2022/11/28 12:15:46;;;;;;;35.92;16.98;;;;;;;;;;5032817;28;20033;-73
2022/11/28 12:18:17;;;;;;;41.47;17.90;;;;;;;;;;5033389;28;20044;-73
2022/11/28 12:20:46;;;;;;;35.75;17.02;;;;;;;;;;5034130;28;20368;-74
2022/11/28 12:23:18;;;;;;;39.17;17.88;;;;;;;;;;5033434;28;20167;-73
2022/11/28 12:25:48;;;;;;;43.58;18.10;;;;;;;;;;5032605;28;20468;-75
2022/11/28 12:28:25;;;;;;;37.55;18.48;;;;;;;;;;5032770;28;20026;-74
2022/11/28 12:31:10;;;;;;;35.03;17.25;;;;;;;;;;5036024;28;20466;-73
2022/11/28 12:33:36;;;;;;;41.80;18.70;;;;;;;;;;5044084;28;20033;-73
2022/11/28 12:36:05;;;;;;;32.83;16.80;;;;;;;;;;5047964;28;20030;-72
2022/11/28 12:38:49;;;;;;;41.33;17.77;;;;;;;;;;5052016;28;20044;-74
2022/11/28 12:41:25;;;;;;;76.72;32.38;;;;;;;;;;5052602;28;20081;-73
2022/11/28 12:44:11;;;;;;;35.47;18.27;;;;;;;;;;5032688;28;20064;-74
2022/11/28 12:47:00;;;;;;;37.35;17.10;;;;;;;;;;5023477;28;20037;-73
2022/11/28 12:49:35;;;;;;;38.72;18.02;;;;;;;;;;5031953;28;20037;-74
2022/11/28 12:52:18;;;;;;;43.08;18.23;;;;;;;;;;5032488;28;20424;-73
2022/11/28 12:55:10;;;;;;;34.05;16.60;;;;;;;;;;5032778;28;20467;-74
2022/11/28 12:57:39;;;;;;;34.47;17.20;;;;;;;;;;5024277;28;20041;-72
2022/11/28 13:00:10;;;;;;;37.38;18.52;;;;;;;;;;5033453;28;20032;-75
2022/11/28 13:02:36;;;;;;;40.15;18.08;;;;;;;;;;5034003;28;20014;-73
2022/11/28 13:05:09;;;;;;;35.17;17.63;;;;;;;;;;5033625;28;20283;-74
2022/11/28 13:07:42;;;;;;;39.15;17.88;;;;;;;;;;5033117;28;20022;-76
2022/11/28 13:10:14;;;;;;;39.08;18.10;;;;;;;;;;5033132;28;20029;-73
2022/11/28 13:12:49;;;;;;;35.22;17.75;;;;;;;;;;5035214;28;20030;-73
2022/11/28 13:15:14;;;;;;;;;;;;;;;;;;5037857;28;20029;-73
2022/11/28 13:17:46;;;;;;;40.83;19.83;;;;;;;;;;5039108;28;20247;-73
2022/11/28 13:20:17;;;;;;;36.85;17.70;;;;;;;;;;5039796;28;20141;-73
2022/11/28 13:23:00;;;;;;;37.33;17.88;;;;;;;;;;5039959;28;20018;-73
2022/11/28 13:25:26;;;;;;;35.58;17.73;;;;;;;;;;5037229;28;20076;-73
2022/11/28 13:28:11;;;;;;;42.33;17.50;;;;;;;;;;5038037;28;20445;-73
2022/11/28 13:30:36;;;;;;;;;;;;;;;;;;5036883;28;20449;-72
2022/11/28 13:33:13;;;;;;;39.22;19.05;;;;;;;;;;5038427;28;19947;-72
2022/11/28 13:35:40;;;;;;;36.25;17.58;;;;;;;;;;5037911;28;20040;-74
2022/11/28 13:38:17;;;;;;;37.28;17.67;;;;;;;;;;5040386;28;20029;-73
2022/11/28 13:40:51;;;;;;;37.45;17.55;;;;;;;;;;5036354;28;20068;-75
2022/11/28 13:43:23;;;;;;;39.45;18.58;;;;;;;;;;5037646;28;20041;-74
2022/11/28 13:45:50;;;;;;;40.53;18.65;;;;;;;;;;5037766;28;20048;-73
2022/11/28 13:48:38;;;;;;;35.72;17.25;;;;;;;;;;5036304;28;20033;-75
2022/11/28 13:51:10;;;;;;;28.50;15.57;;;;;;;;;;5037318;28;20028;-73
2022/11/28 13:53:36;;;;;;;32.17;15.68;;;;;;;;;;5036976;28;20170;-73
2022/11/28 13:56:02;;;;;;;33.03;16.92;;;;;;;;;;5036271;28;20565;-73
2022/11/28 13:58:31;;;;;;;39.03;17.13;;;;;;;;;;5037390;28;20037;-74
2022/11/28 14:01:08;;;;;;;37.50;16.55;;;;;;;;;;5038719;28;20475;-74
2022/11/28 14:03:46;;;;;;;37.25;17.23;;;;;;;;;;5036789;28;20497;-74
2022/11/28 14:06:14;;;;;;;34.45;16.42;;;;;;;;;;5035221;28;20037;-73
2022/11/28 14:08:41;;;;;;;32.55;16.52;;;;;;;;;;5037007;28;20067;-74
2022/11/28 14:11:19;;;;;;;35.42;16.65;;;;;;;;;;5037539;28;20112;-74
2022/11/28 14:13:47;;;;;;;35.58;16.52;;;;;;;;;;5036174;28;20080;-75
2022/11/28 14:16:31;;;;;;;29.95;16.00;;;;;;;;;;5037008;28;20029;-73
2022/11/28 14:19:15;;;;;;;37.42;19.20;;;;;;;;;;5037225;28;20081;-74
2022/11/28 14:21:44;;;;;;;37.25;17.38;;;;;;;;;;5037114;28;20095;-72
2022/11/28 14:24:10;;;;;;;38.78;17.25;;;;;;;;;;5035994;28;20026;-73
2022/11/28 14:26:37;;;;;;;36.28;17.73;;;;;;;;;;5035763;28;20025;-73
2022/11/28 14:29:05;;;;;;;35.15;17.10;;;;;;;;;;5046150;28;20108;-73
2022/11/28 14:31:33;;;;;;;32.47;16.58;;;;;;;;;;5043098;28;20029;-72
2022/11/28 14:34:01;;;;;;;35.90;17.77;;;;;;;;;;5036779;28;20064;-73